Grant, NE (69140)

6:13 AM MST on December 03, 2016 (GMT -0700)
Northwest Chase County | | Change Station

Elev 3494 ft 40.67 °N, 101.91 °W | Updated 17 seconds ago

Overcast
Overcast
25.2 °F
Feels Like 25 °F
N
2.0
Wind Variable Wind from South

Today
High -- | Low -- °F
--% Chance of Precip.
Yesterday
High -- | Low -- °F
Precip. -- in
Pressure 30.10 in
Visibility 10.0 miles
Clouds Overcast 6500 ft
Windchill 25 °F
Dew Point 23 °F
Humidity 91%
Rainfall 0.00 in
Snow Depth Not available.
6:54 AM 4:19 PM
Waxing Crescent, 15% visible
METAR KOGA 031255Z AUTO 00000KT 10SM OVC065 00/M03 A3010 RMK AO2 T00021035
Pressure 30.10 in
Visibility 10.0 miles
Clouds Overcast 6500 ft
Windchill 25 °F
Dew Point 23 °F
Humidity 91%
Rainfall 0.00 in
Snow Depth Not available.
6:54 AM 4:19 PM
Waxing Crescent, 15% visible
METAR KOGA 031255Z AUTO 00000KT 10SM OVC065 00/M03 A3010 RMK AO2 T00021035

10-Day Weather Forecast

Almanac

Astronomy

Dec. 03, 2016 Rise Set
Actual Time
Civil Twilight
Nautical Twilight
Astronomical Twilight
Moon
Length of Visible Light
Length of Day
Tomorrow will be .
, % of the Moon is Illuminated

Today's Extremes

State Highs State Lows

Community

WunderPhotos

Upload Photos

1,955,443 photos uploaded!

WunderBlog® & News

Nearby

Air Quality

  Air Quality AQ Index Pollutant
Not available.

Snow Depth

Station Depth Elevation

Earthquake Activity

City Distance Mag. Time & Date
Minimum magnitude displayed is 2.5.

Coastal Water Temperatures

Place Temperature

Stations

Nearby Weather Stations

Station Location Temp. Windchill Dew Point Humidity Wind Precip. Elev Updated Type
                   

Watches & Warnings

There are currently no watches in effect.